Time;durP1;ratioP1;P1;durP2;ratioP2;P2;SDS_P1;SDS_P2;PMS_P1;PMS_P2;Temp;Humidity;BMP_temperature;BMP_pressure;BME280_temperature;BME280_humidity;BME280_pressure;Samples;Min_cycle;Max_cycle;Signal;HPM_P1;HPM_P2
2024/01/07 00:00:20;;;;;;;12.17;7.63;;;3.00;99.90;;;;;;4986030;28;20180;-59
2024/01/07 00:02:45;;;;;;;6.27;4.63;;;3.00;99.90;;;;;;4988315;28;20439;-59
2024/01/07 00:05:11;;;;;;;5.57;4.00;;;3.00;99.90;;;;;;4990311;28;20220;-59
2024/01/07 00:07:36;;;;;;;6.97;4.57;;;3.00;99.90;;;;;;4992752;28;20242;-60
2024/01/07 00:10:02;;;;;;;9.77;6.03;;;3.00;99.90;;;;;;4988812;28;20222;-59
2024/01/07 00:12:28;;;;;;;7.63;5.60;;;3.00;99.90;;;;;;4991525;28;20184;-60
2024/01/07 00:14:53;;;;;;;7.83;5.30;;;3.00;99.90;;;;;;4990281;28;20498;-60
2024/01/07 00:17:19;;;;;;;7.50;5.60;;;3.00;99.90;;;;;;4991684;28;20452;-59
2024/01/07 00:19:45;;;;;;;7.50;5.20;;;3.00;99.90;;;;;;4994278;28;20189;-59
2024/01/07 00:22:10;;;;;;;10.40;5.10;;;3.00;99.90;;;;;;4984540;28;20223;-59
2024/01/07 00:24:36;;;;;;;6.23;4.80;;;3.00;99.90;;;;;;4993459;28;20231;-58
2024/01/07 00:27:01;;;;;;;5.93;4.00;;;3.00;99.90;;;;;;4989575;28;20667;-60
2024/01/07 00:29:27;;;;;;;4.60;4.03;;;3.00;99.90;;;;;;4991322;28;20236;-58
2024/01/07 00:31:52;;;;;;;3.63;3.30;;;3.00;99.90;;;;;;4990747;28;20193;-59
2024/01/07 00:34:18;;;;;;;3.97;3.37;;;2.90;99.90;;;;;;4987951;28;20183;-58
2024/01/07 00:36:43;;;;;;;3.90;3.40;;;2.90;99.90;;;;;;4992976;28;20204;-60
2024/01/07 00:39:09;;;;;;;4.57;3.40;;;2.90;99.90;;;;;;4991349;28;20196;-59
2024/01/07 00:41:35;;;;;;;4.23;3.67;;;2.90;99.90;;;;;;4990815;28;20189;-58
2024/01/07 00:44:00;;;;;;;6.00;3.77;;;2.90;99.90;;;;;;4986768;28;20243;-60
2024/01/07 00:46:26;;;;;;;5.93;4.20;;;2.80;99.90;;;;;;4992286;28;20223;-58
2024/01/07 00:48:51;;;;;;;11.57;4.20;;;2.90;99.90;;;;;;4991563;28;20189;-59
2024/01/07 00:51:17;;;;;;;4.30;3.43;;;2.80;99.90;;;;;;4979912;28;20182;-58
2024/01/07 00:53:42;;;;;;;4.20;3.60;;;2.80;99.90;;;;;;4987951;28;20192;-58
2024/01/07 00:56:08;;;;;;;5.57;4.10;;;2.80;99.90;;;;;;4986195;28;20354;-59
2024/01/07 00:58:35;;;;;;;5.00;3.70;;;2.80;99.90;;;;;;4988417;28;20184;-58
2024/01/07 01:01:01;;;;;;;5.63;3.77;;;2.80;99.90;;;;;;4990537;28;20260;-59
2024/01/07 01:03:26;;;;;;;5.57;3.67;;;2.80;99.90;;;;;;4991154;28;20571;-59
2024/01/07 01:05:52;;;;;;;5.90;4.27;;;2.80;99.90;;;;;;4986695;28;20197;-58
2024/01/07 01:08:18;;;;;;;7.17;4.90;;;2.80;99.90;;;;;;4987035;28;20480;-58
2024/01/07 01:10:43;;;;;;;6.80;4.90;;;2.70;99.90;;;;;;4989516;28;20185;-58
2024/01/07 01:13:09;;;;;;;6.23;4.33;;;2.80;99.90;;;;;;4985312;28;20193;-57
2024/01/07 01:15:35;;;;;;;6.93;4.37;;;2.70;99.90;;;;;;4984722;28;20208;-57
2024/01/07 01:18:01;;;;;;;8.43;4.40;;;2.80;99.90;;;;;;4986094;28;20189;-57
2024/01/07 01:20:26;;;;;;;5.60;4.77;;;2.80;99.90;;;;;;4987603;28;20819;-57
2024/01/07 01:22:52;;;;;;;5.97;4.50;;;2.80;99.90;;;;;;4988740;28;20185;-58
2024/01/07 01:25:17;;;;;;;5.30;4.13;;;2.80;99.90;;;;;;4978294;28;20216;-57
2024/01/07 01:27:44;;;;;;;8.33;4.80;;;2.80;99.90;;;;;;4987503;28;20188;-58
2024/01/07 01:30:10;;;;;;;5.87;4.80;;;2.80;99.90;;;;;;4986381;28;20991;-58
2024/01/07 01:32:36;;;;;;;6.53;4.90;;;2.80;99.90;;;;;;4990374;28;21222;-58
2024/01/07 01:35:01;;;;;;;4.60;3.87;;;2.80;99.90;;;;;;4986206;28;20458;-57
2024/01/07 01:37:27;;;;;;;4.57;3.80;;;2.80;99.90;;;;;;4988856;28;20208;-58
2024/01/07 01:39:53;;;;;;;4.57;4.07;;;2.80;99.90;;;;;;4987343;28;20177;-58
2024/01/07 01:42:18;;;;;;;5.90;4.30;;;2.80;99.90;;;;;;4987563;28;20181;-57
2024/01/07 01:44:46;;;;;;;6.70;4.60;;;2.80;99.90;;;;;;4979832;28;20197;-58
2024/01/07 01:47:11;;;;;;;4.50;3.90;;;2.80;99.90;;;;;;4981192;28;20586;-58
2024/01/07 01:49:38;;;;;;;5.10;3.80;;;2.80;99.90;;;;;;4988508;28;20444;-59
2024/01/07 01:52:04;;;;;;;5.13;3.67;;;2.70;99.90;;;;;;4987860;28;20199;-58
2024/01/07 01:54:30;;;;;;;3.73;3.23;;;2.70;99.90;;;;;;4987784;28;20419;-59
2024/01/07 01:56:56;;;;;;;5.30;3.57;;;2.70;99.90;;;;;;4984997;28;21064;-59
2024/01/07 01:59:22;;;;;;;5.00;4.07;;;2.70;99.90;;;;;;4984283;28;20169;-59
2024/01/07 02:01:48;;;;;;;5.03;3.93;;;2.70;99.90;;;;;;4985886;28;20664;-56
2024/01/07 02:04:15;;;;;;;4.00;3.20;;;2.70;99.90;;;;;;4986989;28;21088;-59
2024/01/07 02:06:40;;;;;;;5.80;3.63;;;2.70;99.90;;;;;;4986761;28;20192;-58
2024/01/07 02:09:06;;;;;;;5.30;4.17;;;2.60;99.90;;;;;;4985573;28;21342;-59
2024/01/07 02:11:32;;;;;;;5.67;4.10;;;2.60;99.90;;;;;;4982903;28;20589;-58
2024/01/07 02:13:57;;;;;;;6.07;3.90;;;2.70;99.90;;;;;;4979986;28;20230;-60
2024/01/07 02:16:23;;;;;;;5.33;4.17;;;2.60;99.90;;;;;;4985840;28;20236;-60
2024/01/07 02:18:49;;;;;;;5.17;3.80;;;2.60;99.90;;;;;;4987914;28;20188;-58
2024/01/07 02:21:15;;;;;;;5.00;3.63;;;2.60;99.90;;;;;;4986884;28;20258;-59
2024/01/07 02:23:41;;;;;;;5.27;3.80;;;2.60;99.90;;;;;;4981795;28;20441;-59
2024/01/07 02:26:07;;;;;;;5.30;4.03;;;2.60;99.90;;;;;;4985763;28;20213;-59
2024/01/07 02:28:33;;;;;;;5.60;3.47;;;2.60;99.90;;;;;;4988684;28;20435;-59
2024/01/07 02:30:59;;;;;;;6.00;4.17;;;2.60;99.90;;;;;;4985202;28;20200;-59
2024/01/07 02:33:25;;;;;;;5.93;4.07;;;2.60;99.90;;;;;;4981404;28;20443;-59
2024/01/07 02:35:50;;;;;;;6.10;4.30;;;2.60;99.90;;;;;;4982681;28;20458;-59
2024/01/07 02:38:16;;;;;;;9.93;4.60;;;2.60;99.90;;;;;;4983195;28;20173;-58
2024/01/07 02:40:42;;;;;;;10.33;5.07;;;2.60;99.90;;;;;;4986773;28;20222;-59
2024/01/07 02:43:08;;;;;;;7.00;4.83;;;2.60;99.90;;;;;;4978838;28;20192;-59
2024/01/07 02:45:34;;;;;;;4.90;3.97;;;2.60;99.90;;;;;;4980647;28;20251;-59
2024/01/07 02:47:59;;;;;;;11.10;4.20;;;2.60;99.90;;;;;;4977469;28;20449;-59
2024/01/07 02:50:25;;;;;;;11.00;5.20;;;2.60;99.90;;;;;;4981238;28;20188;-59
2024/01/07 02:52:50;;;;;;;5.73;4.20;;;2.60;99.90;;;;;;4979186;28;20246;-59
2024/01/07 02:55:16;;;;;;;7.90;4.77;;;2.60;99.90;;;;;;4978867;28;20208;-59
2024/01/07 02:57:42;;;;;;;7.30;5.00;;;2.60;99.90;;;;;;4978176;28;20247;-60
2024/01/07 03:00:08;;;;;;;5.20;4.37;;;2.60;99.90;;;;;;4977806;28;20269;-59
2024/01/07 03:02:33;;;;;;;7.87;5.50;;;2.60;99.90;;;;;;4985000;28;20178;-59
2024/01/07 03:04:59;;;;;;;6.57;4.63;;;2.60;99.90;;;;;;4980781;28;20448;-59
2024/01/07 03:07:25;;;;;;;5.80;4.30;;;2.60;99.90;;;;;;4981495;28;20219;-60
2024/01/07 03:09:50;;;;;;;6.10;4.57;;;2.60;99.90;;;;;;4980108;28;20255;-59
2024/01/07 03:12:16;;;;;;;5.30;4.10;;;2.60;99.90;;;;;;4981160;28;20664;-59
2024/01/07 03:14:42;;;;;;;7.13;4.80;;;2.60;99.90;;;;;;4979572;28;20217;-59
2024/01/07 03:17:10;;;;;;;6.00;4.27;;;2.60;99.90;;;;;;4980157;28;20991;-59
2024/01/07 03:19:37;;;;;;;7.07;4.90;;;2.60;99.90;;;;;;4981791;28;20283;-60
2024/01/07 03:22:03;;;;;;;8.37;5.20;;;2.60;99.90;;;;;;4981084;28;20465;-59
2024/01/07 03:24:29;;;;;;;7.17;4.20;;;2.60;99.90;;;;;;4979275;28;20436;-58
2024/01/07 03:26:54;;;;;;;7.63;5.20;;;2.60;99.90;;;;;;4981347;28;20203;-60
2024/01/07 03:29:20;;;;;;;10.33;5.33;;;2.60;99.90;;;;;;4977380;28;20191;-60
2024/01/07 03:31:45;;;;;;;7.93;5.23;;;2.60;99.90;;;;;;4979646;28;20182;-58
2024/01/07 03:34:11;;;;;;;5.87;4.30;;;2.60;99.90;;;;;;4978702;28;20193;-60
2024/01/07 03:36:37;;;;;;;6.47;4.47;;;2.60;99.90;;;;;;4979749;28;20217;-60
2024/01/07 03:39:02;;;;;;;9.60;5.40;;;2.60;99.90;;;;;;4979754;28;20184;-58
2024/01/07 03:41:28;;;;;;;6.80;4.80;;;2.60;99.90;;;;;;4981538;28;20263;-59
2024/01/07 03:43:53;;;;;;;7.53;5.03;;;2.60;99.90;;;;;;4980241;28;20208;-59
2024/01/07 03:46:19;;;;;;;7.27;4.93;;;2.60;99.90;;;;;;4979817;28;20217;-58
2024/01/07 03:48:45;;;;;;;9.07;5.00;;;2.60;99.90;;;;;;4979706;28;20258;-58
2024/01/07 03:51:11;;;;;;;9.50;5.17;;;2.60;99.90;;;;;;4982885;28;20188;-59
2024/01/07 03:53:36;;;;;;;6.27;4.40;;;2.60;99.90;;;;;;4979837;28;20261;-59
2024/01/07 03:56:02;;;;;;;6.50;4.63;;;2.70;99.90;;;;;;4979682;28;21085;-59
2024/01/07 03:58:28;;;;;;;8.17;5.00;;;2.70;99.90;;;;;;4982562;28;20177;-59
2024/01/07 04:00:53;;;;;;;12.87;4.67;;;2.70;99.90;;;;;;4984387;28;20436;-59
2024/01/07 04:03:19;;;;;;;7.00;4.43;;;2.70;99.90;;;;;;4986784;28;20208;-59
2024/01/07 04:05:45;;;;;;;5.77;3.73;;;2.70;99.90;;;;;;4981430;28;20663;-59
2024/01/07 04:08:11;;;;;;;6.93;4.00;;;2.70;99.90;;;;;;4986512;28;20177;-59
2024/01/07 04:10:37;;;;;;;6.23;4.80;;;2.70;99.90;;;;;;4986458;28;20740;-59
2024/01/07 04:13:04;;;;;;;7.10;4.87;;;2.60;99.90;;;;;;4984010;28;20435;-58
2024/01/07 04:15:29;;;;;;;5.10;4.00;;;2.60;99.90;;;;;;4979430;28;20534;-57
2024/01/07 04:17:55;;;;;;;7.40;5.00;;;2.70;99.90;;;;;;4980017;28;20491;-59
2024/01/07 04:20:21;;;;;;;5.97;4.40;;;2.60;99.90;;;;;;4984468;28;20918;-59
2024/01/07 04:22:47;;;;;;;7.30;5.07;;;2.60;99.90;;;;;;4984872;28;20620;-59
2024/01/07 04:25:12;;;;;;;7.17;4.20;;;2.60;99.90;;;;;;4981271;28;20977;-59
2024/01/07 04:27:38;;;;;;;8.93;5.00;;;2.60;99.90;;;;;;4987163;28;20197;-59
2024/01/07 04:30:05;;;;;;;7.43;4.77;;;2.60;99.90;;;;;;4989274;28;20185;-58
2024/01/07 04:32:31;;;;;;;8.47;5.40;;;2.60;99.90;;;;;;4988246;28;20620;-60
2024/01/07 04:34:57;;;;;;;8.40;4.60;;;2.60;99.90;;;;;;4990580;28;20966;-59
2024/01/07 04:37:23;;;;;;;7.63;4.77;;;2.60;99.90;;;;;;4978035;28;20270;-60
2024/01/07 04:39:49;;;;;;;8.20;5.40;;;2.60;99.90;;;;;;4986433;28;20437;-59
2024/01/07 04:42:15;;;;;;;6.97;5.00;;;2.60;99.90;;;;;;4987999;28;20486;-60
2024/01/07 04:44:41;;;;;;;7.13;5.40;;;2.60;99.90;;;;;;4991130;28;20205;-60
2024/01/07 04:47:24;;;;;;;8.27;4.90;;;2.60;99.90;;;;;;4990920;28;20438;-60
2024/01/07 04:49:50;;;;;;;8.17;5.37;;;2.60;99.90;;;;;;4988370;28;20298;-58
2024/01/07 04:52:16;;;;;;;7.07;4.73;;;2.60;99.90;;;;;;4989345;28;20428;-60
2024/01/07 04:54:41;;;;;;;6.93;4.80;;;2.60;99.90;;;;;;4985435;28;20222;-58
2024/01/07 04:57:07;;;;;;;7.63;4.87;;;2.60;99.90;;;;;;4987897;28;20205;-59
2024/01/07 04:59:32;;;;;;;7.57;4.87;;;2.60;99.90;;;;;;4990054;28;20715;-57
2024/01/07 05:01:58;;;;;;;6.97;4.77;;;2.60;99.90;;;;;;4981255;28;20271;-58
2024/01/07 05:04:23;;;;;;;7.60;5.13;;;2.60;99.90;;;;;;4989346;28;20273;-58
2024/01/07 05:06:50;;;;;;;8.57;5.30;;;2.60;99.90;;;;;;4986677;28;20188;-58
2024/01/07 05:09:15;;;;;;;8.60;4.80;;;2.60;99.90;;;;;;4980421;28;20196;-59
2024/01/07 05:11:41;;;;;;;7.07;4.73;;;2.60;99.90;;;;;;4982929;28;20436;-58
2024/01/07 05:14:06;;;;;;;5.10;4.17;;;2.60;99.90;;;;;;4988614;28;20196;-58
2024/01/07 05:16:32;;;;;;;7.47;4.20;;;2.60;99.90;;;;;;4986890;28;20615;-58
2024/01/07 05:18:57;;;;;;;6.43;4.73;;;2.60;99.90;;;;;;4982416;28;20189;-58
2024/01/07 05:21:23;;;;;;;9.30;4.90;;;2.60;99.90;;;;;;4988532;28;20187;-58
2024/01/07 05:23:48;;;;;;;7.73;4.40;;;2.60;99.90;;;;;;4981308;28;20197;-57
2024/01/07 05:26:14;;;;;;;8.63;4.97;;;2.60;99.90;;;;;;4985095;28;20212;-59
2024/01/07 05:28:40;;;;;;;5.77;4.53;;;2.60;99.90;;;;;;4988263;28;20697;-58
2024/01/07 05:31:16;;;;;;;5.80;4.70;;;2.60;99.90;;;;;;4984782;28;20522;-58
2024/01/07 05:33:45;;;;;;;6.53;4.00;;;2.60;99.90;;;;;;4993654;28;20189;-59
2024/01/07 05:36:14;;;;;;;5.50;4.40;;;2.60;99.90;;;;;;4983266;28;20475;-59
2024/01/07 05:38:43;;;;;;;7.33;4.40;;;2.60;99.90;;;;;;4981986;28;20433;-59
2024/01/07 05:41:09;;;;;;;6.00;4.23;;;2.60;99.90;;;;;;4988467;28;20416;-58
2024/01/07 05:43:36;;;;;;;8.30;3.47;;;2.60;99.90;;;;;;4982756;28;20929;-59
2024/01/07 05:46:01;;;;;;;6.50;4.60;;;2.60;99.90;;;;;;4987568;28;20268;-58
2024/01/07 05:48:27;;;;;;;6.03;3.97;;;2.60;99.90;;;;;;4989403;28;20943;-59
2024/01/07 05:50:52;;;;;;;5.10;3.73;;;2.60;99.90;;;;;;4989259;28;20263;-58
2024/01/07 05:53:18;;;;;;;5.67;4.23;;;2.60;99.90;;;;;;4983027;28;20193;-57
2024/01/07 05:55:44;;;;;;;6.27;4.63;;;2.60;99.90;;;;;;4985810;28;20232;-58
2024/01/07 05:58:10;;;;;;;6.80;4.30;;;2.60;99.90;;;;;;4989675;28;20295;-58
2024/01/07 06:00:35;;;;;;;5.13;4.00;;;2.60;99.90;;;;;;4986369;28;20185;-58
2024/01/07 06:03:01;;;;;;;5.83;4.00;;;2.60;99.90;;;;;;4983040;28;20439;-58
2024/01/07 06:05:27;;;;;;;4.97;3.77;;;2.60;99.90;;;;;;4984184;28;20206;-58
2024/01/07 06:07:52;;;;;;;5.47;3.60;;;2.60;99.90;;;;;;4988570;28;20721;-58
2024/01/07 06:10:18;;;;;;;4.40;3.80;;;2.60;99.90;;;;;;4983924;28;20279;-58
2024/01/07 06:12:44;;;;;;;5.90;4.30;;;2.70;99.90;;;;;;4987145;28;20256;-59
2024/01/07 06:15:09;;;;;;;5.13;4.20;;;2.60;99.90;;;;;;4986009;28;20215;-56
2024/01/07 06:17:35;;;;;;;3.90;3.50;;;2.60;99.90;;;;;;4983189;28;20233;-59
2024/01/07 06:20:01;;;;;;;6.17;4.07;;;2.60;99.90;;;;;;4984844;28;20196;-58
2024/01/07 06:22:26;;;;;;;4.17;3.43;;;2.60;99.90;;;;;;4988612;28;20180;-58
2024/01/07 06:24:52;;;;;;;5.43;3.70;;;2.70;99.90;;;;;;4984121;28;20188;-57
2024/01/07 06:27:17;;;;;;;4.63;3.57;;;2.70;99.90;;;;;;4986597;28;20284;-58
2024/01/07 06:29:43;;;;;;;5.30;4.03;;;2.70;99.90;;;;;;4984650;28;20263;-59
2024/01/07 06:32:09;;;;;;;6.80;4.00;;;2.70;99.90;;;;;;4985879;28;20354;-59
2024/01/07 06:34:35;;;;;;;5.30;4.10;;;2.70;99.90;;;;;;4982136;28;21263;-59
2024/01/07 06:37:01;;;;;;;9.17;4.13;;;2.70;99.90;;;;;;4987175;28;20483;-58
2024/01/07 06:39:27;;;;;;;5.13;4.00;;;2.70;99.90;;;;;;4986060;28;20192;-58
2024/01/07 06:41:53;;;;;;;5.73;4.00;;;2.70;99.90;;;;;;4985341;28;20248;-59
2024/01/07 06:44:18;;;;;;;6.03;4.13;;;2.70;99.90;;;;;;4985797;28;20683;-58
2024/01/07 06:46:44;;;;;;;5.57;4.67;;;2.70;99.90;;;;;;4986935;28;20424;-58
2024/01/07 06:49:10;;;;;;;5.93;4.50;;;2.70;99.90;;;;;;4986168;28;20189;-58
2024/01/07 06:51:35;;;;;;;6.60;4.30;;;2.70;99.90;;;;;;4982055;28;20267;-58
2024/01/07 06:54:01;;;;;;;6.20;4.03;;;2.70;99.90;;;;;;4983927;28;20188;-57
2024/01/07 06:56:27;;;;;;;8.00;5.73;;;2.70;99.90;;;;;;4983776;28;20205;-59
2024/01/07 06:58:52;;;;;;;5.20;4.00;;;2.70;99.90;;;;;;4985838;28;20185;-60
2024/01/07 07:01:21;;;;;;;6.33;4.60;;;2.70;99.90;;;;;;4986263;28;20187;-58
2024/01/07 07:03:47;;;;;;;6.70;4.30;;;2.70;99.90;;;;;;4983087;28;20192;-58
2024/01/07 07:06:12;;;;;;;10.40;4.60;;;2.70;99.90;;;;;;4986196;28;20458;-58
2024/01/07 07:08:38;;;;;;;6.03;4.03;;;2.70;99.90;;;;;;4986068;28;20247;-59
2024/01/07 07:11:04;;;;;;;4.90;3.97;;;2.70;99.90;;;;;;4986688;28;20191;-57
2024/01/07 07:13:29;;;;;;;6.60;4.10;;;2.70;99.90;;;;;;4984807;28;20226;-59
2024/01/07 07:15:55;;;;;;;6.40;4.37;;;2.70;99.90;;;;;;4983660;28;20216;-58
2024/01/07 07:18:21;;;;;;;9.23;4.77;;;2.70;99.90;;;;;;4987019;28;20682;-59
2024/01/07 07:20:47;;;;;;;7.00;4.57;;;2.70;99.90;;;;;;4984381;28;20609;-59
2024/01/07 07:23:13;;;;;;;6.10;4.30;;;2.70;99.90;;;;;;4986188;28;20413;-59
2024/01/07 07:25:39;;;;;;;6.53;4.67;;;2.70;99.90;;;;;;4983397;28;20205;-60
2024/01/07 07:28:04;;;;;;;9.33;5.30;;;2.70;99.90;;;;;;4988159;28;20474;-60
2024/01/07 07:30:30;;;;;;;8.30;5.10;;;2.70;99.90;;;;;;4985054;28;20591;-60
2024/01/07 07:32:56;;;;;;;8.17;5.40;;;2.70;99.90;;;;;;4984413;28;20707;-60
2024/01/07 07:35:21;;;;;;;7.13;4.27;;;2.70;99.90;;;;;;4983555;28;20219;-59
2024/01/07 07:37:47;;;;;;;6.57;5.03;;;2.70;99.90;;;;;;4981287;28;20467;-59
2024/01/07 07:40:13;;;;;;;5.97;4.53;;;2.70;99.90;;;;;;4980532;28;20178;-58
2024/01/07 07:42:39;;;;;;;7.93;5.73;;;2.70;99.90;;;;;;4982402;28;20235;-60
2024/01/07 07:45:05;;;;;;;7.70;5.10;;;2.70;99.90;;;;;;4984712;28;20216;-59
2024/01/07 07:47:31;;;;;;;8.00;6.23;;;2.70;99.90;;;;;;4987119;28;20518;-59
2024/01/07 07:49:57;;;;;;;7.57;5.30;;;2.70;99.90;;;;;;4987686;28;20531;-59
2024/01/07 07:52:25;;;;;;;6.80;5.57;;;2.70;99.90;;;;;;4975607;28;20189;-59
2024/01/07 07:54:51;;;;;;;8.13;5.23;;;2.70;99.90;;;;;;4976495;28;20510;-59
2024/01/07 07:57:17;;;;;;;7.43;5.00;;;2.70;99.90;;;;;;4979394;28;20535;-60
2024/01/07 07:59:42;;;;;;;4.93;4.10;;;2.80;99.90;;;;;;4989354;28;20506;-60
2024/01/07 08:02:08;;;;;;;8.53;4.97;;;2.80;99.90;;;;;;4984723;28;20924;-58
2024/01/07 08:04:34;;;;;;;6.67;4.70;;;2.80;99.90;;;;;;4987034;28;20599;-58
2024/01/07 08:07:00;;;;;;;7.60;4.70;;;2.80;99.90;;;;;;4988373;28;20173;-58
2024/01/07 08:09:26;;;;;;;7.37;4.50;;;2.80;99.90;;;;;;4980126;28;20177;-59
2024/01/07 08:11:52;;;;;;;4.77;4.27;;;2.80;99.90;;;;;;4987600;28;21197;-60
2024/01/07 08:14:17;;;;;;;6.10;4.10;;;2.80;99.90;;;;;;4988918;28;20185;-59
2024/01/07 08:16:43;;;;;;;6.70;3.90;;;2.90;99.90;;;;;;4989468;28;20209;-59
2024/01/07 08:19:09;;;;;;;6.10;4.70;;;2.90;99.90;;;;;;4990942;28;20188;-58
2024/01/07 08:21:35;;;;;;;5.40;3.80;;;2.90;99.90;;;;;;4986165;28;20796;-58
2024/01/07 08:24:00;;;;;;;4.87;4.00;;;2.90;99.90;;;;;;4988719;28;20439;-59
2024/01/07 08:26:26;;;;;;;7.30;4.10;;;3.00;99.90;;;;;;4986146;28;20193;-58
2024/01/07 08:28:52;;;;;;;4.83;3.87;;;3.00;99.90;;;;;;4987492;28;20184;-58
2024/01/07 08:31:17;;;;;;;4.43;3.67;;;3.00;99.90;;;;;;4985416;28;20755;-60
2024/01/07 08:33:43;;;;;;;5.00;3.87;;;3.00;99.90;;;;;;4983509;28;20526;-59
2024/01/07 08:36:09;;;;;;;4.43;4.03;;;3.00;99.90;;;;;;4987720;28;20197;-60
2024/01/07 08:38:35;;;;;;;5.30;4.27;;;3.10;99.90;;;;;;4985652;28;20208;-54
2024/01/07 08:41:00;;;;;;;3.70;3.37;;;3.10;99.90;;;;;;4981614;28;20265;-56
2024/01/07 08:43:26;;;;;;;5.60;3.70;;;3.10;99.90;;;;;;4987327;28;20503;-56
2024/01/07 08:45:52;;;;;;;3.30;3.00;;;3.10;99.90;;;;;;4984359;28;20196;-58
2024/01/07 08:48:17;;;;;;;3.50;3.20;;;3.10;99.90;;;;;;4982290;28;20620;-59
2024/01/07 08:50:43;;;;;;;3.47;3.10;;;3.10;99.90;;;;;;4986774;28;20177;-59
2024/01/07 08:53:09;;;;;;;4.53;3.53;;;3.10;99.90;;;;;;4981907;28;20571;-58
2024/01/07 08:55:34;;;;;;;4.30;3.10;;;3.10;99.90;;;;;;4985684;28;20203;-61
2024/01/07 08:58:00;;;;;;;3.90;3.43;;;3.10;99.90;;;;;;4984993;28;20697;-60
2024/01/07 09:00:26;;;;;;;3.27;2.97;;;3.10;99.90;;;;;;4984137;28;20182;-60
2024/01/07 09:02:53;;;;;;;4.10;3.67;;;3.20;99.90;;;;;;4980766;28;20181;-59
2024/01/07 09:05:18;;;;;;;3.63;3.30;;;3.20;99.90;;;;;;4980469;28;21556;-59
2024/01/07 09:07:44;;;;;;;3.40;3.10;;;3.20;99.90;;;;;;4977818;28;20469;-60
2024/01/07 09:10:10;;;;;;;3.20;2.90;;;3.30;99.90;;;;;;4985701;28;20181;-61
2024/01/07 09:12:37;;;;;;;4.40;3.60;;;3.30;99.90;;;;;;4986674;28;20177;-61
2024/01/07 09:15:04;;;;;;;3.83;3.53;;;3.30;99.90;;;;;;4984948;28;21265;-59
2024/01/07 09:17:31;;;;;;;4.23;3.40;;;3.40;99.90;;;;;;4985888;28;20467;-60
2024/01/07 09:19:56;;;;;;;3.23;2.97;;;3.40;99.90;;;;;;4988223;28;20482;-60
2024/01/07 09:22:22;;;;;;;3.67;3.37;;;3.40;99.90;;;;;;4979959;28;20448;-60
2024/01/07 09:24:47;;;;;;;4.00;3.60;;;3.40;99.90;;;;;;4975222;28;20201;-60
2024/01/07 09:27:14;;;;;;;3.50;3.20;;;3.40;99.90;;;;;;4985102;28;20572;-61
2024/01/07 09:29:39;;;;;;;5.60;3.80;;;3.40;99.90;;;;;;4973885;28;20180;-61
2024/01/07 09:32:05;;;;;;;4.67;3.37;;;3.40;99.90;;;;;;4979315;28;20454;-60
2024/01/07 09:34:31;;;;;;;6.30;4.80;;;3.40;99.90;;;;;;4970763;28;20196;-62
2024/01/07 09:36:56;;;;;;;4.13;3.73;;;3.40;99.90;;;;;;4982268;28;20460;-62
2024/01/07 09:39:22;;;;;;;5.47;4.10;;;3.40;99.90;;;;;;4978332;28;20181;-61
2024/01/07 09:41:47;;;;;;;4.10;3.70;;;3.40;99.90;;;;;;4983534;28;20659;-61
2024/01/07 09:44:13;;;;;;;4.70;3.93;;;3.40;99.90;;;;;;4979139;28;20227;-61
2024/01/07 09:46:41;;;;;;;4.60;3.80;;;3.40;99.90;;;;;;4982349;28;20294;-61
2024/01/07 09:49:06;;;;;;;5.20;4.33;;;3.40;99.90;;;;;;4979132;28;20192;-61
2024/01/07 09:51:36;;;;;;;6.60;4.03;;;3.50;99.90;;;;;;4976689;28;20447;-58
2024/01/07 09:54:06;;;;;;;5.37;4.50;;;3.50;99.90;;;;;;4982288;28;20177;-60
2024/01/07 09:56:46;;;;;;;4.97;3.83;;;3.50;99.90;;;;;;4974786;28;20460;-60
2024/01/07 09:59:15;;;;;;;4.80;3.70;;;3.50;99.90;;;;;;4984130;28;20437;-60
2024/01/07 10:01:41;;;;;;;4.80;3.90;;;3.50;99.90;;;;;;4987428;28;20485;-60
2024/01/07 10:04:07;;;;;;;6.50;4.53;;;3.40;99.90;;;;;;4983726;28;20558;-60
2024/01/07 10:06:32;;;;;;;4.83;4.30;;;3.50;99.90;;;;;;4978918;28;20486;-60
2024/01/07 10:08:59;;;;;;;6.93;4.53;;;3.50;99.90;;;;;;4978919;28;20552;-60
2024/01/07 10:11:24;;;;;;;4.17;3.77;;;3.50;99.90;;;;;;4985855;28;20177;-62
2024/01/07 10:13:53;;;;;;;6.27;4.53;;;3.50;99.90;;;;;;4985978;28;20466;-60
2024/01/07 10:16:18;;;;;;;5.03;4.33;;;3.50;99.90;;;;;;4983814;28;20201;-61
2024/01/07 10:18:44;;;;;;;4.53;3.67;;;3.50;99.90;;;;;;4980237;28;20490;-59
2024/01/07 10:21:09;;;;;;;5.30;4.00;;;3.50;99.90;;;;;;4980876;28;20177;-60
2024/01/07 10:23:35;;;;;;;6.63;3.70;;;3.50;99.90;;;;;;4981541;28;20216;-59
2024/01/07 10:26:02;;;;;;;5.27;4.73;;;3.50;99.90;;;;;;4984238;28;20201;-60
2024/01/07 10:28:28;;;;;;;5.30;4.57;;;3.50;99.90;;;;;;4980266;28;20189;-60
2024/01/07 10:30:53;;;;;;;4.10;3.70;;;3.50;99.90;;;;;;4982838;28;20448;-58
2024/01/07 10:33:19;;;;;;;5.57;4.40;;;3.50;99.90;;;;;;4982268;28;20507;-60
2024/01/07 10:35:53;;;;;;;6.47;4.30;;;3.50;99.90;;;;;;4986313;28;20199;-59
2024/01/07 10:38:21;;;;;;;4.03;3.50;;;3.50;99.90;;;;;;4977350;28;20215;-62
2024/01/07 10:40:49;;;;;;;5.40;3.90;;;3.60;99.90;;;;;;4978509;28;20522;-60
2024/01/07 10:43:16;;;;;;;5.10;4.10;;;3.60;99.90;;;;;;4983067;28;20443;-60
2024/01/07 10:45:47;;;;;;;5.10;4.60;;;3.60;99.90;;;;;;4983003;28;20461;-60
2024/01/07 10:48:16;;;;;;;6.03;4.37;;;3.60;99.90;;;;;;4977314;28;20520;-59
2024/01/07 10:50:45;;;;;;;5.00;4.30;;;3.60;99.90;;;;;;4981015;28;20432;-60
2024/01/07 10:53:18;;;;;;;4.47;4.07;;;3.60;99.90;;;;;;4980038;28;20412;-60
2024/01/07 10:55:57;;;;;;;5.03;4.10;;;3.60;99.90;;;;;;4979893;28;20510;-60
2024/01/07 10:58:24;;;;;;;5.40;4.20;;;3.60;99.90;;;;;;4981392;28;20428;-61
2024/01/07 11:00:49;;;;;;;5.87;5.27;;;3.60;99.90;;;;;;4981777;28;21083;-59
2024/01/07 11:03:37;;;;;;;6.13;4.70;;;3.60;99.90;;;;;;4977231;28;20432;-61
2024/01/07 11:06:16;;;;;;;5.23;4.43;;;3.50;99.90;;;;;;4982245;28;20197;-60
2024/01/07 11:08:52;;;;;;;5.20;4.70;;;3.50;99.90;;;;;;4984660;28;20458;-60
2024/01/07 11:11:26;;;;;;;7.60;5.20;;;3.50;99.90;;;;;;4969317;28;20419;-60
2024/01/07 11:13:52;;;;;;;6.90;4.80;;;3.40;99.90;;;;;;4980635;28;20499;-57
2024/01/07 11:16:44;;;;;;;5.30;4.50;;;3.40;99.90;;;;;;4975829;28;20484;-58
2024/01/07 11:19:12;;;;;;;6.67;4.60;;;3.40;99.90;;;;;;4981435;28;20193;-57
2024/01/07 11:21:38;;;;;;;6.30;4.60;;;3.40;99.90;;;;;;4980183;28;20436;-55
2024/01/07 11:24:04;;;;;;;6.93;4.60;;;3.40;99.90;;;;;;4980461;28;20448;-60
2024/01/07 11:26:30;;;;;;;6.10;4.73;;;3.40;99.90;;;;;;4979407;28;20210;-61
2024/01/07 11:28:57;;;;;;;7.30;4.90;;;3.40;99.90;;;;;;4979386;28;20468;-58
2024/01/07 11:31:47;;;;;;;8.10;5.43;;;3.40;99.90;;;;;;4975948;28;20443;-61
2024/01/07 11:34:43;;;;;;;7.93;5.40;;;3.40;99.90;;;;;;4979193;28;20824;-59
2024/01/07 11:37:13;;;;;;;5.10;4.37;;;3.40;99.90;;;;;;4977327;28;20475;-59
2024/01/07 11:39:41;;;;;;;5.90;4.90;;;3.40;99.90;;;;;;4980790;28;20535;-60
2024/01/07 11:42:07;;;;;;;10.00;5.07;;;3.50;99.90;;;;;;4980644;28;20432;-59
2024/01/07 11:44:38;;;;;;;10.20;4.67;;;3.50;99.90;;;;;;4978841;28;20428;-58
2024/01/07 11:47:07;;;;;;;6.00;4.70;;;3.50;99.90;;;;;;4970097;28;20808;-61
2024/01/07 11:49:33;;;;;;;7.57;5.03;;;3.40;99.90;;;;;;4976442;28;20440;-60
2024/01/07 11:51:59;;;;;;;7.77;5.50;;;3.40;99.90;;;;;;4975117;28;20510;-59
2024/01/07 11:54:25;;;;;;;6.80;5.10;;;3.40;99.90;;;;;;4977773;28;20460;-56
2024/01/07 11:56:50;;;;;;;8.23;5.43;;;3.40;99.90;;;;;;4978555;28;20470;-60
2024/01/07 11:59:16;;;;;;;9.00;5.30;;;3.40;99.90;;;;;;4976119;28;20833;-59
2024/01/07 12:01:42;;;;;;;5.63;4.90;;;3.30;99.90;;;;;;4978445;28;20690;-58
2024/01/07 12:04:09;;;;;;;5.97;4.30;;;3.30;99.90;;;;;;4975111;28;20208;-60
2024/01/07 12:06:35;;;;;;;9.07;5.13;;;3.30;99.90;;;;;;4974177;28;20193;-59
2024/01/07 12:09:00;;;;;;;8.33;5.60;;;3.30;99.90;;;;;;4975966;28;20972;-59
2024/01/07 12:11:26;;;;;;;6.27;4.60;;;3.30;99.90;;;;;;4976582;28;20436;-60
2024/01/07 12:13:52;;;;;;;6.70;4.80;;;3.30;99.90;;;;;;4977751;28;20204;-60
2024/01/07 12:16:18;;;;;;;6.43;4.77;;;3.30;99.90;;;;;;4973571;28;20464;-59
2024/01/07 12:18:44;;;;;;;6.27;4.93;;;3.30;99.90;;;;;;4981536;28;20840;-58
2024/01/07 12:21:09;;;;;;;7.80;5.10;;;3.30;99.90;;;;;;4971516;28;21886;-59
2024/01/07 12:23:38;;;;;;;7.33;4.80;;;3.30;99.90;;;;;;4983310;28;20177;-61
2024/01/07 12:26:09;;;;;;;9.80;5.27;;;3.20;99.90;;;;;;4979708;28;21929;-59
2024/01/07 12:28:34;;;;;;;6.87;4.57;;;3.20;99.90;;;;;;4978416;28;20432;-60
2024/01/07 12:31:01;;;;;;;6.13;4.47;;;3.20;99.90;;;;;;4979550;28;20431;-59
2024/01/07 12:33:29;;;;;;;7.47;5.37;;;3.10;99.90;;;;;;4980472;28;20181;-60
2024/01/07 12:35:55;;;;;;;6.27;4.40;;;3.10;99.90;;;;;;4978587;28;20448;-59
2024/01/07 12:38:27;;;;;;;9.17;5.80;;;3.10;99.90;;;;;;4976137;28;20460;-61
2024/01/07 12:40:53;;;;;;;7.47;5.13;;;3.10;99.90;;;;;;4980885;28;20678;-62
2024/01/07 12:43:20;;;;;;;6.93;5.13;;;3.10;99.90;;;;;;4975218;28;20436;-59
2024/01/07 12:45:46;;;;;;;7.23;4.77;;;3.10;99.90;;;;;;4976861;28;20471;-59
2024/01/07 12:48:12;;;;;;;6.00;4.53;;;3.10;99.90;;;;;;4986402;28;20983;-60
2024/01/07 12:50:37;;;;;;;6.10;4.40;;;3.00;99.90;;;;;;4987196;28;20429;-58
2024/01/07 12:53:03;;;;;;;6.40;4.43;;;3.00;99.90;;;;;;4978129;28;20613;-59